Time;durP1;ratioP1;P1;durP2;ratioP2;P2;SDS_P1;SDS_P2;PMS_P1;PMS_P2;Temp;Humidity;BMP_temperature;BMP_pressure;BME280_temperature;BME280_humidity;BME280_pressure;Samples;Min_cycle;Max_cycle;Signal;HPM_P1;HPM_P2
2023/05/30 00:00:03;;;;;;;19.02;11.65;;;16.70;99.90;;;;;;4915594;29;20495;-76
2023/05/30 00:02:31;;;;;;;19.15;11.18;;;16.60;99.90;;;;;;4915923;29;20028;-75
2023/05/30 00:04:57;;;;;;;19.92;13.65;;;16.50;99.90;;;;;;4915547;29;20041;-73
2023/05/30 00:07:23;;;;;;;19.17;12.38;;;16.40;99.90;;;;;;4915673;29;20035;-75
2023/05/30 00:09:49;;;;;;;27.50;12.63;;;16.30;99.90;;;;;;4915348;29;20032;-76
2023/05/30 00:12:16;;;;;;;24.67;13.00;;;16.30;99.90;;;;;;4915693;29;20484;-75
2023/05/30 00:14:42;;;;;;;23.38;14.68;;;16.30;99.90;;;;;;4898656;29;20499;-74
2023/05/30 00:17:07;;;;;;;23.15;13.63;;;16.30;99.90;;;;;;4915867;29;20111;-73
2023/05/30 00:19:34;;;;;;;20.85;13.90;;;16.20;99.90;;;;;;4915364;29;20032;-74
2023/05/30 00:22:01;;;;;;;20.33;11.93;;;16.20;99.90;;;;;;4915732;29;20043;-74
2023/05/30 00:24:28;;;;;;;19.95;11.27;;;16.30;99.90;;;;;;4915375;29;20048;-73
2023/05/30 00:26:54;;;;;;;17.67;10.88;;;16.30;99.90;;;;;;4915513;29;20050;-74
2023/05/30 00:29:20;;;;;;;18.85;11.73;;;16.30;99.90;;;;;;4915521;29;20028;-74
2023/05/30 00:31:46;;;;;;;22.67;14.50;;;16.30;99.90;;;;;;4898412;29;20072;-73
2023/05/30 00:34:11;;;;;;;27.65;15.88;;;16.20;99.90;;;;;;4898561;29;20035;-73
2023/05/30 00:36:38;;;;;;;22.65;13.65;;;16.10;99.90;;;;;;4914889;29;20110;-75
2023/05/30 00:39:03;;;;;;;22.17;14.05;;;16.10;99.90;;;;;;4915418;29;20571;-74
2023/05/30 00:41:29;;;;;;;21.65;13.90;;;16.10;99.90;;;;;;4898310;29;20040;-74
2023/05/30 00:43:55;;;;;;;21.50;13.55;;;16.00;99.90;;;;;;4898254;29;20055;-75
2023/05/30 00:46:23;;;;;;;22.13;13.85;;;15.90;99.90;;;;;;4915494;29;20032;-73
2023/05/30 00:48:50;;;;;;;22.65;13.52;;;15.90;99.90;;;;;;4915192;29;20100;-75
2023/05/30 00:51:19;;;;;;;24.80;12.98;;;15.90;99.90;;;;;;4915481;29;20024;-76
2023/05/30 00:53:45;;;;;;;25.27;13.50;;;16.00;99.90;;;;;;4918465;29;20091;-74
2023/05/30 00:56:12;;;;;;;24.50;13.52;;;15.90;99.90;;;;;;4901880;29;20024;-75
2023/05/30 00:58:39;;;;;;;23.45;12.80;;;15.80;99.90;;;;;;4918564;29;20035;-73
2023/05/30 01:01:06;;;;;;;19.60;12.98;;;15.70;99.90;;;;;;4918834;29;20028;-72
2023/05/30 01:03:32;;;;;;;19.13;11.93;;;15.70;99.90;;;;;;4870199;29;20072;-74
2023/05/30 01:06:03;;;;;;;22.10;12.43;;;15.80;99.90;;;;;;4912662;29;20102;-75
2023/05/30 01:08:29;;;;;;;19.50;12.80;;;15.70;99.90;;;;;;4918294;29;20036;-73
2023/05/30 01:11:24;;;;;;;20.88;12.45;;;15.70;99.90;;;;;;4918180;29;20028;-73
2023/05/30 01:14:30;;;;;;;25.08;14.18;;;15.70;99.90;;;;;;4826424;29;20053;-74
2023/05/30 01:17:06;;;;;;;19.20;12.15;;;15.60;99.90;;;;;;4787303;30;20135;-76
2023/05/30 01:19:54;;;;;;;20.65;12.75;;;15.70;99.90;;;;;;4786953;30;20044;-74
2023/05/30 01:22:54;;;;;;;20.50;12.60;;;15.60;99.90;;;;;;4787105;30;20085;-73
2023/05/30 01:25:58;;;;;;;18.00;12.02;;;15.50;99.90;;;;;;4772153;30;20043;-74
2023/05/30 01:28:28;;;;;;;19.42;12.68;;;15.50;99.90;;;;;;4778293;30;20591;-73
2023/05/30 01:30:56;;;;;;;21.48;13.00;;;15.50;99.90;;;;;;4787263;30;20470;-73
2023/05/30 01:33:23;;;;;;;20.30;13.27;;;15.50;99.90;;;;;;4787016;29;20112;-73
2023/05/30 01:35:50;;;;;;;20.63;12.27;;;15.50;99.90;;;;;;4769135;30;20063;-74
2023/05/30 01:38:16;;;;;;;20.40;13.80;;;15.40;99.90;;;;;;4779514;29;20056;-73
2023/05/30 01:40:56;;;;;;;19.63;12.35;;;15.40;99.90;;;;;;4771928;30;20054;-73
2023/05/30 01:43:55;;;;;;;19.77;13.07;;;15.40;99.90;;;;;;4771775;30;20031;-73
2023/05/30 01:46:38;;;;;;;22.08;12.18;;;15.30;99.90;;;;;;4805213;29;20042;-76
2023/05/30 01:49:34;;;;;;;19.75;12.80;;;15.40;99.90;;;;;;4804564;29;20381;-75
2023/05/30 01:52:03;;;;;;;18.20;11.10;;;15.30;99.90;;;;;;4842331;29;20045;-74
2023/05/30 01:54:32;;;;;;;24.15;13.52;;;15.30;99.90;;;;;;4909006;29;20127;-74
2023/05/30 01:57:08;;;;;;;21.25;13.15;;;15.30;99.90;;;;;;4900496;29;20032;-74
2023/05/30 01:59:37;;;;;;;18.95;12.43;;;15.40;99.90;;;;;;4900703;29;20400;-75
2023/05/30 02:02:05;;;;;;;22.33;14.45;;;15.30;99.90;;;;;;4900534;29;20040;-74
2023/05/30 02:04:31;;;;;;;23.10;14.40;;;15.30;99.90;;;;;;4916470;29;20035;-75
2023/05/30 02:06:57;;;;;;;25.33;15.43;;;15.40;99.90;;;;;;4917560;29;20468;-75
2023/05/30 02:09:25;;;;;;;25.75;15.48;;;15.40;99.90;;;;;;4917216;29;20051;-75
2023/05/30 02:11:51;;;;;;;22.50;14.60;;;15.40;99.90;;;;;;4917769;29;20027;-75
2023/05/30 02:14:16;;;;;;;23.50;14.65;;;15.40;99.90;;;;;;4900072;29;20044;-74
2023/05/30 02:16:42;;;;;;;27.25;14.32;;;15.40;99.90;;;;;;4900506;29;20020;-74
2023/05/30 02:19:15;;;;;;;24.60;15.27;;;15.50;99.90;;;;;;4917019;29;20388;-76
2023/05/30 02:21:43;;;;;;;22.58;15.25;;;15.50;99.90;;;;;;4917605;29;20032;-74
2023/05/30 02:24:08;;;;;;;21.95;14.45;;;15.50;99.90;;;;;;4900250;29;20031;-75
2023/05/30 02:26:35;;;;;;;21.95;14.27;;;15.50;99.90;;;;;;4917021;29;20058;-75
2023/05/30 02:29:01;;;;;;;22.73;13.75;;;15.50;99.90;;;;;;4907566;29;20391;-75
2023/05/30 02:31:27;;;;;;;20.20;14.23;;;15.40;99.90;;;;;;4905657;29;20028;-74
2023/05/30 02:33:53;;;;;;;21.65;13.70;;;15.40;99.90;;;;;;4909726;29;20039;-73
2023/05/30 02:36:19;;;;;;;24.45;15.75;;;15.40;99.90;;;;;;4918946;29;20535;-76
2023/05/30 02:38:45;;;;;;;22.90;14.68;;;15.40;99.90;;;;;;4908444;29;20076;-75
2023/05/30 02:41:12;;;;;;;22.92;15.00;;;15.40;99.90;;;;;;4901755;29;20028;-74
2023/05/30 02:43:40;;;;;;;21.35;13.90;;;15.50;99.90;;;;;;4899275;29;20029;-74
2023/05/30 02:46:06;;;;;;;24.60;14.05;;;15.50;99.90;;;;;;4894029;29;20115;-75
2023/05/30 02:48:36;;;;;;;23.52;14.52;;;15.50;99.90;;;;;;4878532;29;20044;-73
2023/05/30 02:51:01;;;;;;;24.13;15.02;;;15.50;99.90;;;;;;4898886;29;20028;-74
2023/05/30 02:53:27;;;;;;;21.42;13.75;;;15.40;99.90;;;;;;4880822;29;20064;-73
2023/05/30 02:55:56;;;;;;;21.38;14.15;;;15.50;99.90;;;;;;4899525;29;20459;-74
2023/05/30 02:58:42;;;;;;;29.48;15.65;;;15.40;99.90;;;;;;4918771;29;20587;-72
2023/05/30 03:01:18;;;;;;;22.67;15.23;;;15.40;99.90;;;;;;4891655;29;20475;-75
2023/05/30 03:03:45;;;;;;;24.77;13.95;;;15.40;99.90;;;;;;4899598;29;20081;-75
2023/05/30 03:06:24;;;;;;;21.17;14.15;;;15.50;99.90;;;;;;4895310;29;20033;-74
2023/05/30 03:09:13;;;;;;;23.95;15.07;;;15.50;99.90;;;;;;4893090;29;20155;-75
2023/05/30 03:11:39;;;;;;;24.95;13.90;;;15.50;99.90;;;;;;4915185;29;20435;-75
2023/05/30 03:14:06;;;;;;;20.60;13.70;;;15.50;99.90;;;;;;4897948;29;20060;-75
2023/05/30 03:16:32;;;;;;;27.45;15.20;;;15.50;99.90;;;;;;4916383;29;20024;-75
2023/05/30 03:19:01;;;;;;;23.33;14.60;;;15.60;99.90;;;;;;4899002;29;20034;-73
2023/05/30 03:21:28;;;;;;;27.30;14.27;;;15.60;99.90;;;;;;4899386;29;20038;-73
2023/05/30 03:23:55;;;;;;;20.80;14.40;;;15.70;99.90;;;;;;4899055;29;20123;-73
2023/05/30 03:26:25;;;;;;;23.08;15.77;;;15.70;99.90;;;;;;4899277;29;20036;-73
2023/05/30 03:28:50;;;;;;;22.55;15.23;;;15.70;99.90;;;;;;4915903;29;20845;-74
2023/05/30 03:31:24;;;;;;;22.92;14.25;;;15.80;99.90;;;;;;4899198;29;20031;-73
2023/05/30 03:33:51;;;;;;;28.33;16.38;;;15.90;99.90;;;;;;4899200;29;20032;-74
2023/05/30 03:36:18;;;;;;;23.52;14.48;;;15.90;99.90;;;;;;4898911;29;20027;-76
2023/05/30 03:38:45;;;;;;;21.60;14.18;;;15.90;99.90;;;;;;4898694;29;20408;-73
2023/05/30 03:41:11;;;;;;;19.98;14.13;;;16.00;99.90;;;;;;4898954;29;20064;-74
2023/05/30 03:43:37;;;;;;;27.98;13.52;;;16.40;99.90;;;;;;4898706;29;20157;-72
2023/05/30 03:46:03;;;;;;;22.23;13.70;;;16.50;99.90;;;;;;4916143;29;20039;-73
2023/05/30 03:48:29;;;;;;;18.75;11.45;;;16.40;99.90;;;;;;4915701;29;20500;-75
2023/05/30 03:50:55;;;;;;;19.35;12.85;;;16.40;99.90;;;;;;4898896;29;20043;-76
2023/05/30 03:53:20;;;;;;;21.75;13.55;;;16.30;99.90;;;;;;4898880;29;20493;-75
2023/05/30 03:55:47;;;;;;;20.95;13.50;;;16.30;99.90;;;;;;4899116;29;20025;-74
2023/05/30 03:58:13;;;;;;;21.80;12.98;;;16.30;99.90;;;;;;4898785;29;20504;-76
2023/05/30 04:00:38;;;;;;;20.30;13.27;;;16.30;99.90;;;;;;4915657;29;20029;-73
2023/05/30 04:03:05;;;;;;;21.92;13.40;;;16.30;99.90;;;;;;4915798;29;20523;-74
2023/05/30 04:05:31;;;;;;;24.23;13.73;;;16.30;99.90;;;;;;4916045;29;20424;-74
2023/05/30 04:07:57;;;;;;;20.15;13.45;;;16.40;99.90;;;;;;4898612;29;20047;-75
2023/05/30 04:10:23;;;;;;;21.70;12.80;;;16.40;99.90;;;;;;4899947;29;20040;-73
2023/05/30 04:12:51;;;;;;;22.40;12.80;;;16.40;99.90;;;;;;4893014;29;20032;-73
2023/05/30 04:15:17;;;;;;;21.77;12.63;;;16.40;99.90;;;;;;4913466;29;20477;-77
2023/05/30 04:17:43;;;;;;;21.10;13.07;;;16.40;99.90;;;;;;4894504;29;20477;-72
2023/05/30 04:20:09;;;;;;;23.55;13.15;;;16.50;99.90;;;;;;4898438;29;20040;-74
2023/05/30 04:22:37;;;;;;;21.05;13.77;;;16.50;99.90;;;;;;4898751;29;20359;-73
2023/05/30 04:25:04;;;;;;;21.10;13.32;;;16.50;99.90;;;;;;4898081;29;20048;-74
2023/05/30 04:27:31;;;;;;;18.15;12.23;;;16.60;99.90;;;;;;4906869;29;20039;-75
2023/05/30 04:29:58;;;;;;;18.35;13.07;;;16.50;99.90;;;;;;4905054;29;20031;-75
2023/05/30 04:32:25;;;;;;;19.70;12.32;;;16.60;99.90;;;;;;4903578;29;20059;-73
2023/05/30 04:34:53;;;;;;;20.38;12.02;;;16.60;99.90;;;;;;4904125;29;20055;-73
2023/05/30 04:37:19;;;;;;;19.90;12.13;;;16.60;99.90;;;;;;4901931;29;20048;-73
2023/05/30 04:39:45;;;;;;;20.23;12.48;;;16.60;99.90;;;;;;4913009;29;20052;-73
2023/05/30 04:42:12;;;;;;;17.90;11.25;;;16.60;99.90;;;;;;4918781;29;20528;-73
2023/05/30 04:44:39;;;;;;;19.60;12.23;;;16.60;99.90;;;;;;4901863;29;20021;-74
2023/05/30 04:47:10;;;;;;;18.88;12.07;;;16.60;99.90;;;;;;4918688;29;20039;-74
2023/05/30 04:49:41;;;;;;;20.63;12.48;;;16.70;99.90;;;;;;4903416;29;20064;-74
2023/05/30 04:52:08;;;;;;;21.02;11.32;;;16.80;99.90;;;;;;4906520;29;20075;-73
2023/05/30 04:54:34;;;;;;;17.65;11.48;;;16.80;99.90;;;;;;4918651;29;20031;-72
2023/05/30 04:57:02;;;;;;;18.85;11.48;;;16.80;99.90;;;;;;4901811;29;20035;-73
2023/05/30 04:59:28;;;;;;;18.88;11.48;;;16.80;99.90;;;;;;4901509;29;20016;-74
2023/05/30 05:01:54;;;;;;;18.73;10.90;;;16.90;99.90;;;;;;4918712;29;20094;-75
2023/05/30 05:04:19;;;;;;;14.98;10.52;;;17.00;99.90;;;;;;4918305;29;20103;-74
2023/05/30 05:06:45;;;;;;;18.15;11.90;;;17.10;99.90;;;;;;4918528;29;20032;-73
2023/05/30 05:09:11;;;;;;;21.00;11.93;;;17.20;99.90;;;;;;4917867;29;20043;-74
2023/05/30 05:11:37;;;;;;;19.08;10.95;;;17.20;99.90;;;;;;4918435;29;20071;-74
2023/05/30 05:14:03;;;;;;;19.67;11.18;;;17.30;99.90;;;;;;4919231;29;20358;-74
2023/05/30 05:16:29;;;;;;;17.77;11.98;;;17.40;99.90;;;;;;4919451;29;20031;-72
2023/05/30 05:18:54;;;;;;;19.20;11.45;;;17.50;99.90;;;;;;4918142;29;20032;-74
2023/05/30 05:21:20;;;;;;;17.02;10.35;;;17.50;99.90;;;;;;4919035;29;20032;-73
2023/05/30 05:23:46;;;;;;;17.08;10.00;;;17.50;99.90;;;;;;4922482;29;20059;-73
2023/05/30 05:26:12;;;;;;;14.82;9.10;;;17.50;99.90;;;;;;4918078;29;20371;-72
2023/05/30 05:28:38;;;;;;;16.13;9.50;;;17.60;99.90;;;;;;4930227;29;20043;-74
2023/05/30 05:31:04;;;;;;;15.40;9.68;;;17.70;99.90;;;;;;4928215;29;20480;-73
2023/05/30 05:33:30;;;;;;;18.55;10.60;;;17.80;99.90;;;;;;4918331;29;20106;-73
2023/05/30 05:35:56;;;;;;;16.92;9.93;;;17.80;99.90;;;;;;4917648;29;20028;-73
2023/05/30 05:38:21;;;;;;;14.23;8.95;;;18.00;99.90;;;;;;4918063;29;20131;-72
2023/05/30 05:40:47;;;;;;;15.45;9.35;;;18.00;99.90;;;;;;4917657;29;20035;-74
2023/05/30 05:43:13;;;;;;;13.00;8.50;;;18.10;99.90;;;;;;4918951;29;20032;-73
2023/05/30 05:45:39;;;;;;;19.58;8.48;;;18.10;99.90;;;;;;4917593;29;20028;-73
2023/05/30 05:48:05;;;;;;;15.57;8.80;;;18.10;99.90;;;;;;4917677;29;20060;-73
2023/05/30 05:50:31;;;;;;;13.38;8.43;;;18.30;99.90;;;;;;4918023;29;20020;-73
2023/05/30 05:52:56;;;;;;;14.77;7.95;;;18.40;99.90;;;;;;4918695;29;20507;-72
2023/05/30 05:55:22;;;;;;;13.82;8.57;;;18.40;99.90;;;;;;4928456;29;20090;-72
2023/05/30 05:57:48;;;;;;;13.18;8.90;;;18.50;99.90;;;;;;4918454;29;20464;-73
2023/05/30 06:00:15;;;;;;;12.15;7.32;;;18.70;99.90;;;;;;4921990;29;20051;-74
2023/05/30 06:02:41;;;;;;;11.90;7.18;;;18.80;99.90;;;;;;4923515;29;20115;-74
2023/05/30 06:05:07;;;;;;;12.57;7.75;;;19.00;99.90;;;;;;4922818;29;20498;-73
2023/05/30 06:07:34;;;;;;;12.90;8.30;;;19.20;99.90;;;;;;4917280;29;20027;-72
2023/05/30 06:10:00;;;;;;;12.93;7.47;;;19.30;99.90;;;;;;4917392;29;20106;-72
2023/05/30 06:12:26;;;;;;;12.40;7.38;;;19.40;99.90;;;;;;4917254;29;20036;-72
2023/05/30 06:14:51;;;;;;;11.93;7.60;;;19.50;99.90;;;;;;4921453;29;20034;-73
2023/05/30 06:17:17;;;;;;;9.77;6.63;;;19.80;99.90;;;;;;4917510;29;20028;-74
2023/05/30 06:19:43;;;;;;;11.65;7.50;;;19.80;99.90;;;;;;4902163;29;20044;-72
2023/05/30 06:22:09;;;;;;;10.13;6.95;;;19.80;99.90;;;;;;4929196;29;20024;-75
2023/05/30 06:24:36;;;;;;;13.13;6.55;;;19.80;99.90;;;;;;4916981;29;20139;-73
2023/05/30 06:27:02;;;;;;;11.85;7.38;;;20.00;99.90;;;;;;4920334;29;20381;-72
2023/05/30 06:29:30;;;;;;;12.98;7.03;;;20.00;99.90;;;;;;4917924;29;20036;-73
2023/05/30 06:31:55;;;;;;;12.30;7.72;;;20.40;99.90;;;;;;4922337;29;20064;-71
2023/05/30 06:34:21;;;;;;;11.90;6.78;;;20.40;99.90;;;;;;4923227;29;20051;-73
2023/05/30 06:36:47;;;;;;;10.43;5.93;;;20.90;99.90;;;;;;4916884;29;20048;-72
2023/05/30 06:39:15;;;;;;;11.32;6.35;;;21.30;99.90;;;;;;4923454;29;20039;-73
2023/05/30 06:41:43;;;;;;;9.65;6.60;;;21.80;99.90;;;;;;4916600;29;20036;-72
2023/05/30 06:44:09;;;;;;;11.15;6.63;;;22.30;99.90;;;;;;4916782;29;20025;-72
2023/05/30 06:46:35;;;;;;;12.52;7.40;;;22.80;99.90;;;;;;4916350;29;20123;-73
2023/05/30 06:49:01;;;;;;;9.82;6.00;;;22.70;99.90;;;;;;4916461;29;20036;-76
2023/05/30 06:51:27;;;;;;;10.07;6.00;;;22.80;99.90;;;;;;4916295;29;20020;-73
2023/05/30 06:53:54;;;;;;;10.20;6.80;;;22.90;99.90;;;;;;4899901;29;20040;-72
2023/05/30 06:56:20;;;;;;;10.38;6.57;;;23.10;99.90;;;;;;4899379;29;20028;-72
2023/05/30 06:58:46;;;;;;;10.45;5.72;;;23.60;99.90;;;;;;4916319;29;20039;-76
2023/05/30 07:01:12;;;;;;;10.32;6.60;;;23.00;99.90;;;;;;4916295;29;20063;-75
2023/05/30 07:03:37;;;;;;;13.57;7.10;;;22.90;99.90;;;;;;4916600;29;20387;-73
2023/05/30 07:06:06;;;;;;;12.20;6.15;;;23.40;99.90;;;;;;4899267;29;20040;-73
2023/05/30 07:08:32;;;;;;;9.90;5.63;;;23.40;99.90;;;;;;4916477;29;20091;-74
2023/05/30 07:10:58;;;;;;;12.23;6.57;;;23.80;99.90;;;;;;4916383;29;20473;-73
2023/05/30 07:13:23;;;;;;;11.00;6.18;;;23.70;99.90;;;;;;4916092;29;20084;-78
2023/05/30 07:15:50;;;;;;;9.95;5.80;;;23.80;99.90;;;;;;4914879;29;20035;-74
2023/05/30 07:18:15;;;;;;;12.80;5.75;;;23.70;99.90;;;;;;4917356;29;20100;-71
2023/05/30 07:20:41;;;;;;;8.60;5.78;;;23.60;99.90;;;;;;4929342;29;20480;-71
2023/05/30 07:23:07;;;;;;;8.35;5.40;;;23.50;99.90;;;;;;4915863;29;20031;-74
2023/05/30 07:25:33;;;;;;;8.35;4.28;;;23.80;99.90;;;;;;4916202;29;20087;-72
2023/05/30 07:27:59;;;;;;;7.85;5.25;;;23.70;99.90;;;;;;4915812;29;20036;-72
2023/05/30 07:30:24;;;;;;;8.45;4.47;;;23.70;99.90;;;;;;4918132;29;20024;-71
2023/05/30 07:32:51;;;;;;;9.55;5.15;;;23.80;99.90;;;;;;4917400;29;20536;-71
2023/05/30 07:35:16;;;;;;;9.55;5.70;;;23.50;99.90;;;;;;4917940;29;20028;-71
2023/05/30 07:37:42;;;;;;;8.10;5.07;;;23.50;99.90;;;;;;4916189;29;20048;-72
2023/05/30 07:40:08;;;;;;;10.05;5.25;;;23.40;99.90;;;;;;4915591;29;20036;-74
2023/05/30 07:42:36;;;;;;;12.38;5.20;;;23.00;99.90;;;;;;4921524;29;20383;-73
2023/05/30 07:45:02;;;;;;;10.45;5.95;;;23.00;99.90;;;;;;4923053;29;20032;-77
2023/05/30 07:47:28;;;;;;;11.18;5.93;;;22.90;99.90;;;;;;4916780;29;20031;-71
2023/05/30 07:49:54;;;;;;;12.63;6.40;;;22.80;99.90;;;;;;4919329;29;20032;-75
2023/05/30 07:52:20;;;;;;;12.68;6.20;;;22.60;99.90;;;;;;4919744;29;20027;-72
2023/05/30 07:54:46;;;;;;;11.70;5.70;;;22.70;99.90;;;;;;4915592;29;20392;-71
2023/05/30 07:57:13;;;;;;;9.82;6.40;;;22.70;99.90;;;;;;4916353;29;20472;-73
2023/05/30 07:59:42;;;;;;;9.43;6.15;;;22.80;99.90;;;;;;4910499;29;20044;-72
2023/05/30 08:02:07;;;;;;;11.20;6.40;;;22.90;99.90;;;;;;4910731;29;20031;-72
2023/05/30 08:04:33;;;;;;;12.80;7.07;;;22.80;99.90;;;;;;4909492;29;20028;-72
2023/05/30 08:06:59;;;;;;;13.43;6.30;;;23.00;99.90;;;;;;4919471;29;20087;-72
2023/05/30 08:09:25;;;;;;;10.38;6.30;;;23.60;99.90;;;;;;4919320;29;20476;-75
2023/05/30 08:11:52;;;;;;;12.15;7.05;;;23.70;99.90;;;;;;4931024;29;20063;-71
2023/05/30 08:14:18;;;;;;;15.85;7.05;;;23.90;99.90;;;;;;4920927;29;20028;-72
2023/05/30 08:16:43;;;;;;;9.07;5.57;;;23.70;99.90;;;;;;4919204;29;20118;-73
2023/05/30 08:19:09;;;;;;;9.05;5.97;;;23.70;99.90;;;;;;4932012;29;20027;-72
2023/05/30 08:21:36;;;;;;;9.75;5.60;;;23.80;99.90;;;;;;4925829;29;20031;-72
2023/05/30 08:24:02;;;;;;;10.35;5.50;;;23.50;99.90;;;;;;4920294;29;20111;-73
2023/05/30 08:26:31;;;;;;;7.40;5.15;;;23.60;99.90;;;;;;4921904;29;20502;-73
2023/05/30 08:28:58;;;;;;;10.85;5.82;;;23.80;99.90;;;;;;4918855;29;20036;-73
2023/05/30 08:31:24;;;;;;;11.50;5.47;;;23.90;99.90;;;;;;4928218;29;20028;-73
2023/05/30 08:33:50;;;;;;;9.88;5.43;;;24.50;99.90;;;;;;4922611;29;20111;-73
2023/05/30 08:36:16;;;;;;;8.38;5.18;;;24.80;99.90;;;;;;4919855;29;20111;-73
2023/05/30 08:38:42;;;;;;;18.83;7.82;;;24.80;99.90;;;;;;4918765;29;20048;-73
2023/05/30 08:41:09;;;;;;;8.00;5.00;;;24.50;99.90;;;;;;4919055;29;20036;-73
2023/05/30 08:43:35;;;;;;;11.10;5.28;;;24.50;99.90;;;;;;4918751;29;20097;-75
2023/05/30 08:46:04;;;;;;;9.77;5.55;;;24.50;99.90;;;;;;4918475;29;20472;-76
2023/05/30 08:48:33;;;;;;;10.77;5.82;;;24.50;99.90;;;;;;4925746;29;20127;-74
2023/05/30 08:51:00;;;;;;;10.20;5.72;;;24.50;99.90;;;;;;4918934;29;20036;-73
2023/05/30 08:53:32;;;;;;;9.90;5.18;;;24.80;99.90;;;;;;4918848;29;20036;-73
2023/05/30 08:56:09;;;;;;;9.65;5.57;;;24.80;99.90;;;;;;4918966;29;20095;-74
2023/05/30 08:58:39;;;;;;;13.52;6.22;;;24.60;99.90;;;;;;4918724;29;20039;-74
2023/05/30 09:01:06;;;;;;;9.60;5.40;;;24.20;99.90;;;;;;4918906;29;20040;-74
2023/05/30 09:03:35;;;;;;;10.80;5.88;;;23.90;99.90;;;;;;4918489;29;20115;-75
2023/05/30 09:06:02;;;;;;;9.55;5.15;;;23.90;99.90;;;;;;4918832;29;20028;-74
2023/05/30 09:08:29;;;;;;;9.90;4.38;;;24.10;99.90;;;;;;4919383;29;20035;-75
2023/05/30 09:10:56;;;;;;;8.18;5.25;;;24.30;99.90;;;;;;4918520;29;20040;-76
2023/05/30 09:13:22;;;;;;;8.38;4.78;;;24.10;99.90;;;;;;4925933;29;20016;-73
2023/05/30 09:15:48;;;;;;;15.93;5.63;;;24.00;99.90;;;;;;4923626;29;20040;-74
2023/05/30 09:18:16;;;;;;;6.82;4.13;;;24.40;99.90;;;;;;4919320;29;20020;-75
2023/05/30 09:20:42;;;;;;;5.82;4.28;;;24.30;99.90;;;;;;4922280;29;20063;-72
2023/05/30 09:23:09;;;;;;;10.93;4.90;;;24.20;99.90;;;;;;4918591;29;20024;-73
2023/05/30 09:25:47;;;;;;;8.95;5.15;;;24.50;99.90;;;;;;4901086;29;20457;-74
2023/05/30 09:28:13;;;;;;;7.93;4.95;;;24.20;99.90;;;;;;4919151;29;20552;-73
2023/05/30 09:30:58;;;;;;;8.65;4.60;;;24.10;99.90;;;;;;4922130;29;20061;-73
2023/05/30 09:33:40;;;;;;;9.27;5.10;;;24.50;99.90;;;;;;4917953;29;20036;-73
2023/05/30 09:36:07;;;;;;;11.55;5.60;;;24.70;99.90;;;;;;4918342;29;20037;-73
2023/05/30 09:38:33;;;;;;;9.00;5.05;;;24.60;99.90;;;;;;4917508;29;20044;-74
2023/05/30 09:41:05;;;;;;;9.82;4.68;;;24.70;99.90;;;;;;4924186;29;20072;-73
2023/05/30 09:43:35;;;;;;;10.32;5.78;;;24.70;99.90;;;;;;4923971;29;20133;-73
2023/05/30 09:46:07;;;;;;;11.40;5.65;;;24.60;99.90;;;;;;4929047;29;20469;-76
2023/05/30 09:48:33;;;;;;;10.70;5.93;;;24.60;99.90;;;;;;4917875;29;20040;-73
2023/05/30 09:51:00;;;;;;;11.98;5.97;;;25.00;99.90;;;;;;4919693;29;20028;-74
2023/05/30 09:53:32;;;;;;;6.30;4.45;;;25.50;99.90;;;;;;4924965;29;20044;-73
2023/05/30 09:55:58;;;;;;;12.65;5.28;;;25.40;99.90;;;;;;4917994;29;20468;-72
2023/05/30 09:58:24;;;;;;;9.18;4.70;;;25.10;99.90;;;;;;4917681;29;20383;-73
2023/05/30 10:00:51;;;;;;;11.00;5.05;;;25.50;99.90;;;;;;4917859;29;20028;-73
2023/05/30 10:03:18;;;;;;;10.82;5.00;;;;;;;;;;4919230;29;20491;-75
2023/05/30 10:05:44;;;;;;;7.20;4.60;;;25.40;99.90;;;;;;4923712;29;20055;-74
2023/05/30 10:08:11;;;;;;;10.05;5.05;;;25.40;99.90;;;;;;4919117;29;20469;-73
2023/05/30 10:10:40;;;;;;;11.25;5.82;;;25.70;99.90;;;;;;4918724;29;20032;-73
2023/05/30 10:13:07;;;;;;;10.15;5.35;;;25.80;99.90;;;;;;4919120;29;20112;-74
2023/05/30 10:15:33;;;;;;;9.35;4.40;;;25.90;99.90;;;;;;4917582;29;20035;-73
2023/05/30 10:18:09;;;;;;;6.65;4.07;;;25.90;99.90;;;;;;4916928;29;20479;-73
2023/05/30 10:20:44;;;;;;;6.40;3.20;;;26.00;99.90;;;;;;4917119;29;20042;-73
2023/05/30 10:23:13;;;;;;;5.50;3.83;;;25.80;99.90;;;;;;4907074;29;20080;-73
2023/05/30 10:25:50;;;;;;;6.30;3.60;;;25.50;99.90;;;;;;4916244;29;20031;-74
2023/05/30 10:28:26;;;;;;;6.88;3.17;;;25.10;99.90;;;;;;4918348;29;20078;-73
2023/05/30 10:30:53;;;;;;;6.82;4.30;;;25.10;99.90;;;;;;4922997;29;20453;-73
2023/05/30 10:33:20;;;;;;;6.20;3.47;;;25.10;99.90;;;;;;4923596;29;20032;-77
2023/05/30 10:35:47;;;;;;;4.53;3.35;;;25.20;99.90;;;;;;4922212;29;20027;-73
2023/05/30 10:38:13;;;;;;;18.30;6.70;;;25.10;99.90;;;;;;4918437;29;20044;-73
2023/05/30 10:40:54;;;;;;;6.07;3.60;;;25.20;99.90;;;;;;4918226;29;20463;-74
2023/05/30 10:43:42;;;;;;;7.40;3.88;;;25.20;99.90;;;;;;4919735;29;20032;-72
2023/05/30 10:46:36;;;;;;;9.38;4.32;;;25.10;99.90;;;;;;4917426;29;20107;-76
2023/05/30 10:49:06;;;;;;;6.03;3.55;;;25.40;99.90;;;;;;4909469;29;20040;-73
2023/05/30 10:52:01;;;;;;;6.03;3.05;;;25.30;99.90;;;;;;4916780;29;20032;-76
2023/05/30 10:54:32;;;;;;;6.07;3.78;;;25.50;99.90;;;;;;4916419;29;20036;-74
2023/05/30 10:57:20;;;;;;;8.32;3.08;;;25.30;99.90;;;;;;4916430;29;20023;-73
2023/05/30 10:59:47;;;;;;;7.32;3.67;;;25.30;99.90;;;;;;4924630;29;20059;-74
2023/05/30 11:02:20;;;;;;;5.68;3.45;;;25.10;99.90;;;;;;4926561;29;20484;-75
2023/05/30 11:04:50;;;;;;;9.63;4.00;;;25.20;99.90;;;;;;4910745;29;20032;-74
2023/05/30 11:07:17;;;;;;;6.03;3.55;;;25.30;99.90;;;;;;4921602;29;20043;-73
2023/05/30 11:10:02;;;;;;;6.53;3.58;;;25.30;99.90;;;;;;4916373;29;20042;-74
2023/05/30 11:12:28;;;;;;;4.65;3.35;;;25.50;99.90;;;;;;4922810;29;20540;-73
2023/05/30 11:14:58;;;;;;;6.28;3.72;;;25.70;99.90;;;;;;4916490;29;20024;-75
2023/05/30 11:17:35;;;;;;;7.70;3.47;;;25.70;99.90;;;;;;4920093;29;20023;-73
2023/05/30 11:20:16;;;;;;;7.55;3.45;;;25.60;99.90;;;;;;4920667;29;20024;-74
2023/05/30 11:23:01;;;;;;;7.00;3.78;;;25.70;99.90;;;;;;4919732;29;20031;-74
2023/05/30 11:25:31;;;;;;;6.20;3.28;;;25.40;99.90;;;;;;4922084;29;20036;-76
2023/05/30 11:28:12;;;;;;;5.03;3.38;;;25.20;99.90;;;;;;4917754;29;20036;-72
2023/05/30 11:30:45;;;;;;;5.97;3.10;;;24.30;99.90;;;;;;4916302;29;20076;-76
2023/05/30 11:33:12;;;;;;;6.35;3.55;;;24.80;99.90;;;;;;4907914;29;20262;-73
2023/05/30 11:35:38;;;;;;;5.07;3.38;;;24.80;99.90;;;;;;4915803;29;20039;-72
2023/05/30 11:38:06;;;;;;;7.53;3.45;;;24.80;99.90;;;;;;4915584;29;20063;-78
2023/05/30 11:40:32;;;;;;;4.90;3.50;;;25.10;99.90;;;;;;4915867;29;20107;-77
2023/05/30 11:42:58;;;;;;;7.07;3.20;;;25.20;99.90;;;;;;4916796;29;20456;-73
2023/05/30 11:45:25;;;;;;;6.60;3.65;;;25.30;99.90;;;;;;4917087;29;20137;-75
2023/05/30 11:47:51;;;;;;;5.70;3.70;;;25.50;99.90;;;;;;4923781;29;20476;-76
2023/05/30 11:50:21;;;;;;;5.03;3.55;;;25.70;99.90;;;;;;4920203;29;20039;-73
2023/05/30 11:52:47;;;;;;;4.50;3.35;;;25.20;99.90;;;;;;4915857;29;20028;-72
2023/05/30 11:55:13;;;;;;;6.28;3.15;;;25.70;99.90;;;;;;4915591;29;20017;-74
2023/05/30 11:57:39;;;;;;;6.40;2.83;;;25.70;99.90;;;;;;4916099;29;20034;-74
2023/05/30 12:00:11;;;;;;;6.53;3.30;;;25.80;99.90;;;;;;4916575;29;20051;-76
2023/05/30 12:02:41;;;;;;;7.18;3.38;;;25.80;99.90;;;;;;4917225;29;20107;-74
2023/05/30 12:05:08;;;;;;;6.15;3.30;;;25.80;99.90;;;;;;4914952;29;20032;-73
2023/05/30 12:07:34;;;;;;;8.80;3.85;;;25.90;99.90;;;;;;4915645;29;20032;-72
2023/05/30 12:10:00;;;;;;;7.97;3.85;;;26.10;99.90;;;;;;4915125;29;20074;-72
2023/05/30 12:12:27;;;;;;;8.20;3.72;;;25.70;99.90;;;;;;4926614;29;20028;-76
2023/05/30 12:14:53;;;;;;;7.45;3.92;;;25.80;99.90;;;;;;4920943;29;20111;-72
2023/05/30 12:17:24;;;;;;;6.05;3.42;;;25.90;99.90;;;;;;4917969;29;20047;-72
2023/05/30 12:20:00;;;;;;;5.82;3.47;;;25.80;99.90;;;;;;4909265;29;20432;-76
2023/05/30 12:22:32;;;;;;;6.40;3.10;;;25.90;99.90;;;;;;4915428;29;20037;-72
2023/05/30 12:24:58;;;;;;;6.10;3.47;;;25.80;99.90;;;;;;4922656;29;20031;-73
2023/05/30 12:27:26;;;;;;;5.90;3.47;;;25.90;99.90;;;;;;4919599;29;20103;-73
2023/05/30 12:29:52;;;;;;;6.40;3.20;;;25.90;99.90;;;;;;4914970;29;20460;-76
2023/05/30 12:32:25;;;;;;;6.85;3.60;;;25.90;99.90;;;;;;4920481;29;20020;-73
2023/05/30 12:34:58;;;;;;;5.40;3.60;;;25.90;99.90;;;;;;4916286;29;20127;-73
2023/05/30 12:37:24;;;;;;;5.25;3.60;;;26.00;99.90;;;;;;4915270;29;20052;-75
2023/05/30 12:39:57;;;;;;;8.95;3.13;;;25.90;99.90;;;;;;4902773;29;20028;-73
2023/05/30 12:42:27;;;;;;;5.55;3.15;;;26.00;99.90;;;;;;4915344;29;20111;-76